Pagina principale
METAR-TAF:

METAR-TAF

Aeroporti :

Aeroporto di Latina

Latina, Italia

latitudine: 41-33N, longitudine: 012-54E, altezza: 25 m

Osservazione

Il bollettino è stato emesso 51 minuti fa, alle 15:55 UTC
Vento 7 kt da ovest
Temperature 34°C
Umidità 34%
Pressione 1016 hPa
Visibilità 10 km o più
nessuna nube inferiore a 1500 m e nessun cumulonembo

METAR: LIRL 201555Z 27007KT CAVOK 34/16 Q1016 RMK SKC MON LIB NC VIS MIN 9999 WIND THR12 27007KT WIND THR30 27008KT BLU

Ora: 18:46 (16:46 UTC)

Previsione

Il bollettino è stato emesso 2 ore e 46 minuti fa, alle 14:00 UTC
Previsione valida dal 20 alle 15 UTC al 20 alle 24 UTC
Vento 3 kt da direzioni variabili
Visibilità 10 km o più
nessuna nube inferiore a 1500 m e nessun cumulonembo
Temporaneamente
dal 20 alle 15 UTC al 20 alle 18 UTC
Vento 10 kt da sud/sud-ovest

TAF: LIRL 201400Z 2015/2024 VRB03KT CAVOK TEMPO 2015/2018 21010KT

Osservazioni e previsioni meteorologiche di più di 4000 aeroporti (messaggi METAR e TAF).

Le stazioni disponibili sono rappresentate dai dischi gialli e rossi sulla carta.

Puntare il mouse per vedere il nome della stazione.

Clicca sopra per visualizzare le osservazioni e previsioni meteorologiche.

Per cambiare la mappa : fare clic sui pulsanti verdi con una croce nera per ingrandire, il pulsante verde con un trattino per diminuire, o sulla freccia verde per le mappe adiacenti.


METAR-TAF: